Big Bear Station Historical Data
Daily Summary for August 26, 2017 Units:  English    Metric   Both
« Previous Day
Next Day »
Daily Weekly Monthly Yearly Custom
  High: Low: Average:
Temperature: 85.5 °F 47.5 °F 66 °F
Dew Point: 48.2 °F 33.5 °F 41.4 °F
Humidity: 69 % 21 % 44 %
Wind Speed: 9.4 mph 0.0 mph 1.8 mph
Wind Gust: -999.0 mph - -
Wind:- - WSW
Pressure: 30.35 in 30.26 in -
Precipitation: 0.00 in    
Historical Graphs
 
 
Tabular Data for August 26, 2017
Time Temperature Dew Point Pressure Wind Wind Speed Wind Gust Humidity Rainfall Rate (Hourly)
00:10 53.4 °F 34.7 °F 30.26 in Calm   -999.0 mph 49 % 0 in
00:25 52.9 °F 35.7 °F 30.27 in SSE 2.2 mph -999.0 mph 52 % 0 in
00:40 52.5 °F 36.3 °F 30.27 in Calm   -999.0 mph 54 % 0 in
00:55 52.0 °F 36.8 °F 30.27 in South 2.2 mph -999.0 mph 56 % 0 in
01:11 51.6 °F 37.3 °F 30.27 in Calm   -999.0 mph 58 % 0 in
01:26 51.6 °F 36.4 °F 30.27 in SSW 3.2 mph -999.0 mph 56 % 0 in
01:41 51.3 °F 35.7 °F 30.27 in Calm   -999.0 mph 55 % 0 in
01:56 50.9 °F 34.4 °F 30.26 in South 2.2 mph -999.0 mph 53 % 0 in
02:11 50.5 °F 34.9 °F 30.27 in SE 2.7 mph -999.0 mph 55 % 0 in
02:27 50.2 °F 34.7 °F 30.27 in SSE 2.2 mph -999.0 mph 55 % 0 in
02:57 50.0 °F 34.0 °F 30.27 in Calm   -999.0 mph 54 % 0 in
03:12 49.5 °F 34.0 °F 30.27 in Calm   -999.0 mph 55 % 0 in
03:27 49.3 °F 34.7 °F 30.27 in Calm   -999.0 mph 57 % 0 in
03:43 49.1 °F 35.8 °F 30.27 in Calm   -999.0 mph 60 % 0 in
03:58 48.7 °F 37.1 °F 30.27 in Calm   -999.0 mph 64 % 0 in
04:13 48.7 °F 37.8 °F 30.27 in Calm   -999.0 mph 66 % 0 in
04:28 48.6 °F 38.5 °F 30.27 in South 1.7 mph -999.0 mph 68 % 0 in
04:43 48.7 °F 38.2 °F 30.27 in Calm   -999.0 mph 67 % 0 in
04:59 48.2 °F 38.1 °F 30.27 in Calm   -999.0 mph 68 % 0 in
05:14 48.0 °F 36.4 °F 30.27 in Calm   -999.0 mph 64 % 0 in
05:29 47.8 °F 33.7 °F 30.27 in Calm   -999.0 mph 58 % 0 in
05:44 47.5 °F 33.5 °F 30.28 in Calm   -999.0 mph 58 % 0 in
05:59 48.2 °F 33.7 °F 30.28 in Calm   -999.0 mph 57 % 0 in
06:15 47.8 °F 33.7 °F 30.29 in Calm   -999.0 mph 58 % 0 in
06:30 48.4 °F 34.7 °F 30.29 in Calm   -999.0 mph 59 % 0 in
06:45 48.6 °F 35.8 °F 30.30 in Calm   -999.0 mph 61 % 0 in
07:00 48.9 °F 36.9 °F 30.30 in Calm   -999.0 mph 63 % 0 in
07:15 49.1 °F 37.8 °F 30.30 in Calm   -999.0 mph 65 % 0 in
07:31 49.6 °F 39.1 °F 30.31 in Calm   -999.0 mph 67 % 0 in
07:46 50.2 °F 39.7 °F 30.31 in Calm   -999.0 mph 67 % 0 in
08:01 51.1 °F 40.5 °F 30.32 in Calm   -999.0 mph 67 % 0 in
08:16 52.5 °F 42.6 °F 30.31 in Calm   -999.0 mph 69 % 0 in
08:32 55.9 °F 44.3 °F 30.32 in Calm   -999.0 mph 65 % 0 in
08:47 57.9 °F 44.1 °F 30.32 in Calm   -999.0 mph 60 % 0 in
09:02 60.8 °F 44.0 °F 30.32 in Calm   -999.0 mph 54 % 0 in
09:17 64.8 °F 37.9 °F 30.32 in NW 2.2 mph -999.0 mph 37 % 0 in
09:32 69.8 °F 35.2 °F 30.32 in NNW 1.7 mph -999.0 mph 28 % 0 in
09:48 70.9 °F 41.9 °F 30.32 in WNW 3.7 mph -999.0 mph 35 % 0 in
10:03 72.5 °F 39.3 °F 30.33 in Calm   -999.0 mph 30 % 0 in
10:18 74.5 °F 39.3 °F 30.33 in ENE 3.2 mph -999.0 mph 28 % 0 in
10:33 75.7 °F 40.3 °F 30.33 in NW 2.7 mph -999.0 mph 28 % 0 in
10:48 77.9 °F 40.3 °F 30.33 in ENE 1.7 mph -999.0 mph 26 % 0 in
11:04 79.2 °F 45.1 °F 30.33 in NW 6.3 mph -999.0 mph 30 % 0 in
11:19 80.8 °F 42.7 °F 30.33 in NW 2.2 mph -999.0 mph 26 % 0 in
11:34 80.2 °F 37.9 °F 30.32 in SSE 3.7 mph -999.0 mph 22 % 0 in
11:49 82.2 °F 40.7 °F 30.33 in NNW 3.2 mph -999.0 mph 23 % 0 in
12:04 82.2 °F 41.8 °F 30.33 in NNE 4.2 mph -999.0 mph 24 % 0 in
12:20 82.2 °F 41.8 °F 30.33 in West 5.3 mph -999.0 mph 24 % 0 in
12:35 81.9 °F 41.6 °F 30.33 in NNW 9.4 mph -999.0 mph 24 % 0 in
12:51 84.4 °F 41.4 °F 30.33 in NW 6.8 mph -999.0 mph 22 % 0 in
13:06 84.4 °F 42.6 °F 30.33 in NNE 4.7 mph -999.0 mph 23 % 0 in
13:21 85.5 °F 41.1 °F 30.32 in WNW 5.3 mph -999.0 mph 21 % 0 in
13:37 82.2 °F 41.8 °F 30.32 in North 3.7 mph -999.0 mph 24 % 0 in
13:52 82.0 °F 41.7 °F 30.32 in North 4.7 mph -999.0 mph 24 % 0 in
14:07 82.4 °F 44.1 °F 30.31 in NW 4.7 mph -999.0 mph 26 % 0 in
14:22 84.0 °F 43.3 °F 30.31 in NW 4.2 mph -999.0 mph 24 % 0 in
14:37 83.8 °F 42.1 °F 30.31 in NNW 4.7 mph -999.0 mph 23 % 0 in
14:53 82.4 °F 44.1 °F 30.31 in NW 4.7 mph -999.0 mph 26 % 0 in
15:08 83.7 °F 45.2 °F 30.31 in WNW 4.2 mph -999.0 mph 26 % 0 in
15:23 84.7 °F 46.0 °F 30.31 in SW 1.1 mph -999.0 mph 26 % 0 in
15:38 84.4 °F 43.7 °F 30.30 in West 4.7 mph -999.0 mph 24 % 0 in
15:54 82.6 °F 45.2 °F 30.30 in SW 3.2 mph -999.0 mph 27 % 0 in
16:09 81.7 °F 48.1 °F 30.30 in NNW 4.7 mph -999.0 mph 31 % 0 in
16:24 82.4 °F 47.0 °F 30.30 in SW 1.7 mph -999.0 mph 29 % 0 in
16:39 82.8 °F 48.2 °F 30.30 in NNW 6.3 mph -999.0 mph 30 % 0 in
16:54 82.2 °F 46.8 °F 30.30 in WNW 5.3 mph -999.0 mph 29 % 0 in
17:10 83.5 °F 47.0 °F 30.30 in NW 5.3 mph -999.0 mph 28 % 0 in
17:25 80.8 °F 46.5 °F 30.30 in SSW 2.2 mph -999.0 mph 30 % 0 in
17:40 82.4 °F 47.9 °F 30.30 in West 1.7 mph -999.0 mph 30 % 0 in
17:55 82.8 °F 47.3 °F 30.31 in West 3.2 mph -999.0 mph 29 % 0 in
18:10 82.8 °F 48.2 °F 30.31 in NW 5.3 mph -999.0 mph 30 % 0 in
18:26 79.7 °F 47.2 °F 30.31 in Calm   -999.0 mph 32 % 0 in
18:41 77.9 °F 46.5 °F 30.31 in WNW 1.7 mph -999.0 mph 33 % 0 in
18:56 75.2 °F 47.1 °F 30.31 in NNW 1.1 mph -999.0 mph 37 % 0 in
19:11 73.0 °F 46.6 °F 30.31 in Calm   -999.0 mph 39 % 0 in
19:26 71.6 °F 46.0 °F 30.32 in Calm   -999.0 mph 40 % 0 in
19:42 70.2 °F 45.4 °F 30.32 in Calm   -999.0 mph 41 % 0 in
19:57 69.1 °F 45.7 °F 30.32 in Calm   -999.0 mph 43 % 0 in
20:12 68.4 °F 45.6 °F 30.32 in Calm   -999.0 mph 44 % 0 in
20:27 67.5 °F 46.0 °F 30.33 in Calm   -999.0 mph 46 % 0 in
20:43 66.9 °F 44.9 °F 30.34 in Calm   -999.0 mph 45 % 0 in
20:58 66.2 °F 44.2 °F 30.34 in Calm   -999.0 mph 45 % 0 in
21:14 65.1 °F 44.4 °F 30.34 in Calm   -999.0 mph 47 % 0 in
21:29 63.7 °F 45.2 °F 30.34 in Calm   -999.0 mph 51 % 0 in
21:44 62.8 °F 44.4 °F 30.35 in Calm   -999.0 mph 51 % 0 in
22:14 61.3 °F 43.5 °F 30.35 in Calm   -999.0 mph 52 % 0 in
22:45 60.3 °F 45.5 °F 30.35 in Calm   -999.0 mph 58 % 0 in
23:00 59.7 °F 45.8 °F 30.35 in Calm   -999.0 mph 60 % 0 in
23:15 59.2 °F 46.6 °F 30.35 in Calm   -999.0 mph 63 % 0 in
23:30 58.8 °F 46.7 °F 30.35 in Calm   -999.0 mph 64 % 0 in
23:46 58.3 °F 46.2 °F 30.35 in Calm   -999.0 mph 64 % 0 in
Big Bear CA Weather
Compliments of Weather Underground - 1.5 mb